createdAt,value
2022-11-05T00:02:22.890Z,10.29
2022-11-05T00:05:08.248Z,10.18
2022-11-05T00:07:58.842Z,10.14
2022-11-05T00:10:28.763Z,10.09
2022-11-05T00:13:16.270Z,10.08
2022-11-05T00:16:01.707Z,10.08
2022-11-05T00:18:29.500Z,10.09
2022-11-05T00:20:57.054Z,10.00
2022-11-05T00:23:43.298Z,10.03
2022-11-05T00:26:12.305Z,10.02
2022-11-05T00:28:43.769Z,10.02
2022-11-05T00:31:13.263Z,10.03
2022-11-05T00:33:42.772Z,10.02
2022-11-05T00:36:12.063Z,10.05
2022-11-05T00:38:40.974Z,10.06
2022-11-05T00:41:08.795Z,10.02
2022-11-05T00:43:53.932Z,10.02
2022-11-05T00:46:21.449Z,9.98
2022-11-05T00:49:06.576Z,10.00
2022-11-05T00:51:34.068Z,9.99
2022-11-05T00:54:03.094Z,9.99
2022-11-05T00:56:30.682Z,9.99
2022-11-05T00:58:58.358Z,10.00
2022-11-05T01:01:26.007Z,9.99
2022-11-05T01:03:53.571Z,10.01
2022-11-05T01:06:21.099Z,10.06
2022-11-05T01:08:48.612Z,10.08
2022-11-05T01:11:33.839Z,10.08
2022-11-05T01:14:02.372Z,10.07
2022-11-05T01:16:30.471Z,9.97
2022-11-05T01:18:57.974Z,9.98
2022-11-05T01:21:25.481Z,10.00
2022-11-05T01:23:53.646Z,10.01
2022-11-05T01:26:22.665Z,10.02
2022-11-05T01:28:51.883Z,9.99
2022-11-05T01:31:19.459Z,10.00
2022-11-05T01:33:47.090Z,10.01
2022-11-05T01:36:14.832Z,10.04
2022-11-05T01:38:42.418Z,10.06
2022-11-05T01:41:10.065Z,10.02
2022-11-05T01:43:49.358Z,10.04
2022-11-05T01:46:20.666Z,10.06
2022-11-05T01:48:50.930Z,10.08
2022-11-05T01:51:20.976Z,10.10
2022-11-05T01:53:53.324Z,10.10
2022-11-05T01:56:25.281Z,10.14
2022-11-05T01:58:57.398Z,10.14
2022-11-05T02:01:25.914Z,10.20
2022-11-05T02:03:56.331Z,10.13
2022-11-05T02:06:23.890Z,10.08
2022-11-05T02:08:58.059Z,10.07
2022-11-05T02:11:25.748Z,10.07
2022-11-05T02:13:54.637Z,10.08
2022-11-05T02:16:32.967Z,10.11
2022-11-05T02:19:12.103Z,10.13
2022-11-05T02:22:00.616Z,10.11
2022-11-05T02:25:11.101Z,10.19
2022-11-05T02:28:06.356Z,10.17
2022-11-05T02:30:43.334Z,10.16
2022-11-05T02:33:27.693Z,10.15
2022-11-05T02:36:06.672Z,10.14
2022-11-05T02:38:46.970Z,10.10
2022-11-05T02:41:24.611Z,10.06
2022-11-05T02:44:06.994Z,10.08
2022-11-05T02:46:46.534Z,10.04
2022-11-05T02:49:23.298Z,9.97
2022-11-05T02:51:57.843Z,10.00
2022-11-05T02:54:29.558Z,9.98
2022-11-05T02:57:00.213Z,9.95
2022-11-05T02:59:27.771Z,9.90
2022-11-05T03:01:58.199Z,9.89
2022-11-05T03:04:27.031Z,9.91
2022-11-05T03:07:08.940Z,9.96
2022-11-05T03:10:00.493Z,9.94
2022-11-05T03:12:33.550Z,9.93
2022-11-05T03:15:13.458Z,9.93
2022-11-05T03:17:50.282Z,9.89
2022-11-05T03:20:22.585Z,9.92
2022-11-05T03:22:54.705Z,9.88
2022-11-05T03:25:25.564Z,9.88
2022-11-05T03:27:57.380Z,9.90
2022-11-05T03:30:26.169Z,9.86
2022-11-05T03:32:59.911Z,9.87
2022-11-05T03:35:31.089Z,9.87
2022-11-05T03:38:03.638Z,9.89
2022-11-05T03:40:35.869Z,9.93
2022-11-05T03:43:06.454Z,9.94
2022-11-05T03:45:37.166Z,9.96
2022-11-05T03:48:10.313Z,9.97
2022-11-05T03:50:41.783Z,9.85
2022-11-05T03:53:16.231Z,9.84
2022-11-05T03:55:52.464Z,9.86
2022-11-05T03:58:22.239Z,9.85
2022-11-05T04:00:51.717Z,9.88
2022-11-05T04:03:20.638Z,9.88
2022-11-05T04:06:09.160Z,9.85
2022-11-05T04:08:54.507Z,9.80
2022-11-05T04:11:39.810Z,9.82
2022-11-05T04:14:07.375Z,9.79
2022-11-05T04:16:52.555Z,9.78
2022-11-05T04:19:42.381Z,9.83
2022-11-05T04:22:27.396Z,9.81
2022-11-05T04:24:54.909Z,9.87
2022-11-05T04:27:22.676Z,9.87
2022-11-05T04:30:07.789Z,9.89
2022-11-05T04:32:35.375Z,9.89
2022-11-05T04:35:04.407Z,9.89
2022-11-05T04:37:32.070Z,9.85
2022-11-05T04:39:59.623Z,9.87
2022-11-05T04:42:28.479Z,9.90
2022-11-05T04:44:56.047Z,9.93
2022-11-05T04:47:23.538Z,10.01
2022-11-05T04:49:51.043Z,10.00
2022-11-05T04:52:19.908Z,10.02
2022-11-05T04:54:47.523Z,10.02
2022-11-05T04:57:15.073Z,9.97
2022-11-05T04:59:42.738Z,9.97
2022-11-05T05:02:10.377Z,9.90
2022-11-05T05:04:37.963Z,9.82
2022-11-05T05:07:05.815Z,9.85
2022-11-05T05:09:34.682Z,9.91
2022-11-05T05:12:02.498Z,9.86
2022-11-05T05:14:30.030Z,9.76
2022-11-05T05:16:57.553Z,9.70
2022-11-05T05:19:25.645Z,9.66
2022-11-05T05:21:52.287Z,9.67
2022-11-05T05:24:21.227Z,9.62
2022-11-05T05:26:51.714Z,9.66
2022-11-05T05:29:19.670Z,9.62
2022-11-05T05:31:47.184Z,9.60
2022-11-05T05:34:15.677Z,9.51
2022-11-05T05:36:43.203Z,9.48
2022-11-05T05:39:11.643Z,9.46
2022-11-05T05:41:39.193Z,9.48
2022-11-05T05:44:08.470Z,9.49
2022-11-05T05:46:36.008Z,9.52
2022-11-05T05:49:06.691Z,9.50
2022-11-05T05:51:38.703Z,9.58
2022-11-05T05:54:06.599Z,9.57
2022-11-05T05:56:34.132Z,9.58
2022-11-05T05:59:01.661Z,9.55
2022-11-05T06:01:30.634Z,9.54
2022-11-05T06:03:58.203Z,9.51
2022-11-05T06:06:25.721Z,9.52
2022-11-05T06:08:53.250Z,9.48
2022-11-05T06:11:20.800Z,9.62
2022-11-05T06:13:48.342Z,9.67
2022-11-05T06:16:16.033Z,9.60
2022-11-05T06:18:44.912Z,9.56
2022-11-05T06:21:14.329Z,9.49
2022-11-05T06:23:44.298Z,9.48
2022-11-05T06:26:13.642Z,9.52
2022-11-05T06:28:42.390Z,9.52
2022-11-05T06:31:10.132Z,9.57
2022-11-05T06:33:37.882Z,9.54
2022-11-05T06:36:08.811Z,9.60
2022-11-05T06:38:37.559Z,9.66
2022-11-05T06:41:10.005Z,9.70
2022-11-05T06:43:38.447Z,9.70
2022-11-05T06:46:06.867Z,9.63
2022-11-05T06:48:35.129Z,9.50
2022-11-05T06:51:02.708Z,9.48
2022-11-05T06:53:31.843Z,9.48
2022-11-05T06:56:03.102Z,9.48
2022-11-05T06:58:31.725Z,9.48
2022-11-05T07:01:02.102Z,9.54
2022-11-05T07:03:29.830Z,9.54
2022-11-05T07:05:59.107Z,9.47
2022-11-05T07:08:26.912Z,9.40
2022-11-05T07:10:55.805Z,9.32
2022-11-05T07:13:23.337Z,9.27
2022-11-05T07:15:50.931Z,9.29
2022-11-05T07:18:18.815Z,9.27
2022-11-05T07:20:46.353Z,9.20
2022-11-05T07:23:15.439Z,9.12
2022-11-05T07:25:44.016Z,9.17
2022-11-05T07:28:14.315Z,9.10
2022-11-05T07:30:41.976Z,9.11
2022-11-05T07:33:10.348Z,9.10
2022-11-05T07:35:38.134Z,9.12
2022-11-05T07:38:05.688Z,9.14
2022-11-05T07:40:33.209Z,9.26
2022-11-05T07:43:02.610Z,9.35
2022-11-05T07:45:32.261Z,9.48
2022-11-05T07:48:01.631Z,9.48
2022-11-05T07:50:31.541Z,9.49
2022-11-05T07:53:03.027Z,9.56
2022-11-05T07:55:31.267Z,9.61
2022-11-05T07:57:59.433Z,9.68
2022-11-05T08:00:28.213Z,9.78
2022-11-05T08:03:07.330Z,9.79
2022-11-05T08:05:38.283Z,9.80
2022-11-05T08:08:07.018Z,10.26
2022-11-05T08:10:35.444Z,10.31
2022-11-05T08:13:03.266Z,10.35
2022-11-05T08:15:30.877Z,10.27
2022-11-05T08:18:00.627Z,10.18
2022-11-05T08:20:28.683Z,10.21
2022-11-05T08:22:56.811Z,10.18
2022-11-05T08:25:25.016Z,10.23
2022-11-05T08:27:56.942Z,10.37
2022-11-05T08:30:24.735Z,10.51
2022-11-05T08:32:52.420Z,10.63
2022-11-05T08:35:21.268Z,10.71
2022-11-05T08:37:48.801Z,10.74
2022-11-05T08:40:16.592Z,10.90
2022-11-05T08:42:44.151Z,10.82
2022-11-05T08:45:11.834Z,10.83
2022-11-05T08:47:39.388Z,10.83
2022-11-05T08:50:07.898Z,10.58
2022-11-05T08:52:36.822Z,10.55
2022-11-05T08:55:04.493Z,10.50
2022-11-05T08:57:31.998Z,10.37
2022-11-05T08:59:59.538Z,10.29
2022-11-05T09:02:27.154Z,10.27
2022-11-05T09:04:54.721Z,10.14
2022-11-05T09:07:22.861Z,10.06
2022-11-05T09:09:51.752Z,10.10
2022-11-05T09:12:19.379Z,10.08
2022-11-05T09:14:46.912Z,10.04
2022-11-05T09:17:18.138Z,10.21
2022-11-05T09:19:46.074Z,10.37
2022-11-05T09:22:13.682Z,10.34
2022-11-05T09:24:41.264Z,10.44
2022-11-05T09:27:11.838Z,10.41
2022-11-05T09:29:39.469Z,10.39
2022-11-05T09:32:07.058Z,10.35
2022-11-05T09:34:35.390Z,10.25
2022-11-05T09:37:03.316Z,10.36
2022-11-05T09:39:30.903Z,10.37
2022-11-05T09:42:03.098Z,10.53
2022-11-05T09:44:38.695Z,10.50
2022-11-05T09:47:09.437Z,10.47
2022-11-05T09:49:40.688Z,10.46
2022-11-05T09:52:14.355Z,10.44
2022-11-05T09:54:42.182Z,10.38
2022-11-05T09:57:16.797Z,10.46
2022-11-05T09:59:49.914Z,10.48
2022-11-05T10:02:20.558Z,10.55
2022-11-05T10:04:51.945Z,10.47
2022-11-05T10:07:23.998Z,10.53
2022-11-05T10:09:57.026Z,10.62
2022-11-05T10:12:29.502Z,10.86
2022-11-05T10:15:08.021Z,10.95
2022-11-05T10:17:39.359Z,10.96
2022-11-05T10:20:15.242Z,11.17
2022-11-05T10:22:48.180Z,11.44
2022-11-05T10:25:19.682Z,11.62
2022-11-05T10:27:52.011Z,11.60
2022-11-05T10:30:21.917Z,11.75
2022-11-05T10:32:53.051Z,11.68
2022-11-05T10:35:23.000Z,11.74
2022-11-05T10:37:51.310Z,11.62
2022-11-05T10:40:30.762Z,11.38
2022-11-05T10:43:05.900Z,11.50
2022-11-05T10:45:46.812Z,11.62
2022-11-05T10:48:33.556Z,11.75
2022-11-05T10:51:02.047Z,11.53
2022-11-05T10:53:33.505Z,11.49
2022-11-05T10:56:01.283Z,11.53
2022-11-05T10:58:31.065Z,11.52
2022-11-05T11:01:13.277Z,11.65
2022-11-05T11:03:44.723Z,11.56
2022-11-05T11:06:24.210Z,11.59
2022-11-05T11:08:53.676Z,11.75
2022-11-05T11:11:31.026Z,11.92
2022-11-05T11:14:07.615Z,11.72
2022-11-05T11:16:39.673Z,11.64
2022-11-05T11:19:25.744Z,11.97
2022-11-05T11:22:20.740Z,12.25
2022-11-05T11:24:50.922Z,12.45
2022-11-05T11:27:23.270Z,12.54
2022-11-05T11:29:57.284Z,12.69
2022-11-05T11:32:32.787Z,12.90
2022-11-05T11:35:01.100Z,13.11
2022-11-05T11:37:31.499Z,13.17
2022-11-05T11:40:04.320Z,13.03
2022-11-05T11:42:34.490Z,12.88
2022-11-05T11:45:07.926Z,12.82
2022-11-05T11:47:36.749Z,12.92
2022-11-05T11:50:04.528Z,12.78
2022-11-05T11:52:34.537Z,12.80
2022-11-05T11:55:19.309Z,12.83
2022-11-05T11:57:49.078Z,12.73
2022-11-05T12:00:17.734Z,12.68
2022-11-05T12:03:02.264Z,12.75
2022-11-05T12:05:37.251Z,12.68
2022-11-05T12:08:17.154Z,12.62
2022-11-05T12:10:55.735Z,12.54
2022-11-05T12:13:41.736Z,12.54
2022-11-05T12:16:20.976Z,12.41
2022-11-05T12:19:00.430Z,12.30
2022-11-05T12:21:51.954Z,12.35
2022-11-05T12:24:37.674Z,12.43
2022-11-05T12:27:18.937Z,12.34
2022-11-05T12:29:56.445Z,12.36
2022-11-05T12:32:56.015Z,12.40
2022-11-05T12:35:44.202Z,12.36
2022-11-05T12:38:27.183Z,12.44
2022-11-05T12:41:07.905Z,12.30
2022-11-05T12:43:47.403Z,12.56
2022-11-05T12:46:26.713Z,12.91
2022-11-05T12:49:19.675Z,13.11
2022-11-05T12:52:04.911Z,13.06
2022-11-05T12:54:48.855Z,13.08
2022-11-05T12:57:17.628Z,13.14
2022-11-05T12:59:52.842Z,13.42
2022-11-05T13:02:27.769Z,13.67
2022-11-05T13:04:59.580Z,13.24
2022-11-05T13:07:34.378Z,13.06
2022-11-05T13:10:06.323Z,13.11
2022-11-05T13:12:39.906Z,13.34
2022-11-05T13:15:11.550Z,13.39
2022-11-05T13:17:50.080Z,12.69
2022-11-05T13:20:22.192Z,12.66
2022-11-05T13:22:56.283Z,12.59
2022-11-05T13:25:26.135Z,12.50
2022-11-05T13:28:00.439Z,12.44
2022-11-05T13:30:32.483Z,12.13
2022-11-05T13:33:06.301Z,12.17
2022-11-05T13:35:45.190Z,12.13
2022-11-05T13:38:39.534Z,12.09
2022-11-05T13:41:22.349Z,11.95
2022-11-05T13:44:06.216Z,11.77
2022-11-05T13:46:40.224Z,11.48
2022-11-05T13:49:16.411Z,11.42
2022-11-05T13:51:50.933Z,11.51
2022-11-05T13:54:51.594Z,11.45
2022-11-05T13:57:34.541Z,11.56
2022-11-05T14:00:12.319Z,11.67
2022-11-05T14:02:44.370Z,11.88
2022-11-05T14:05:24.817Z,12.11
2022-11-05T14:07:54.154Z,12.17
2022-11-05T14:10:36.413Z,12.13
2022-11-05T14:13:17.161Z,12.37
2022-11-05T14:15:57.564Z,12.54
2022-11-05T14:18:40.948Z,13.22
2022-11-05T14:21:31.381Z,13.62
2022-11-05T14:24:00.700Z,13.63
2022-11-05T14:26:36.899Z,13.47
2022-11-05T14:29:26.284Z,13.42
2022-11-05T14:32:08.748Z,12.90
2022-11-05T14:34:49.341Z,12.62
2022-11-05T14:37:31.915Z,12.51
2022-11-05T14:40:18.887Z,12.40
2022-11-05T14:42:53.858Z,12.47
2022-11-05T14:45:28.024Z,12.41
2022-11-05T14:47:58.099Z,12.43
2022-11-05T14:50:36.032Z,12.36
2022-11-05T14:53:23.843Z,12.28
2022-11-05T14:56:00.769Z,12.27
2022-11-05T14:58:32.964Z,12.29
2022-11-05T15:01:02.189Z,12.25
2022-11-05T15:04:01.740Z,12.22
2022-11-05T15:06:32.459Z,12.35
2022-11-05T15:09:23.868Z,12.47
2022-11-05T15:12:15.814Z,12.59
2022-11-05T15:14:55.589Z,12.60
2022-11-05T15:17:29.776Z,12.52
2022-11-05T15:20:02.422Z,12.45
2022-11-05T15:22:37.336Z,12.39
2022-11-05T15:25:06.467Z,12.32
2022-11-05T15:27:49.932Z,12.22
2022-11-05T15:30:21.043Z,12.07
2022-11-05T15:32:48.669Z,11.92
2022-11-05T15:35:26.736Z,11.81
2022-11-05T15:38:01.688Z,11.65
2022-11-05T15:40:31.790Z,11.59
2022-11-05T15:43:09.950Z,11.52
2022-11-05T15:45:39.973Z,11.39
2022-11-05T15:48:14.976Z,11.23
2022-11-05T15:50:42.928Z,11.12
2022-11-05T15:53:44.132Z,11.04
2022-11-05T15:56:11.751Z,10.92
2022-11-05T15:58:41.743Z,10.77
2022-11-05T16:01:21.226Z,10.63
2022-11-05T16:03:49.127Z,10.50
2022-11-05T16:06:16.842Z,10.38
2022-11-05T16:08:49.080Z,10.26
2022-11-05T16:11:24.742Z,10.15
2022-11-05T16:13:53.303Z,10.03
2022-11-05T16:16:33.602Z,9.94
2022-11-05T16:19:01.597Z,9.84
2022-11-05T16:21:29.419Z,9.73
2022-11-05T16:23:58.925Z,9.62
2022-11-05T16:27:00.688Z,9.55
2022-11-05T16:29:23.407Z,9.47
2022-11-05T16:31:55.086Z,9.34
2022-11-05T16:34:27.872Z,9.28
2022-11-05T16:36:57.133Z,9.20
2022-11-05T16:39:25.158Z,9.05
2022-11-05T16:41:52.971Z,8.98
2022-11-05T16:44:21.133Z,8.90
2022-11-05T16:46:50.255Z,8.81
2022-11-05T16:49:19.206Z,8.74
2022-11-05T16:51:46.884Z,8.68
2022-11-05T16:54:14.393Z,8.60
2022-11-05T16:56:42.743Z,8.55
2022-11-05T16:59:13.353Z,8.51
2022-11-05T17:01:43.023Z,8.45
2022-11-05T17:04:13.570Z,8.42
2022-11-05T17:06:43.654Z,8.39
2022-11-05T17:09:11.220Z,8.28
2022-11-05T17:11:38.785Z,8.23
2022-11-05T17:14:06.558Z,8.22
2022-11-05T17:16:34.116Z,8.17
2022-11-05T17:19:01.721Z,8.09
2022-11-05T17:21:29.304Z,8.02
2022-11-05T17:23:58.329Z,7.98
2022-11-05T17:26:25.874Z,7.94
2022-11-05T17:28:53.402Z,7.87
2022-11-05T17:31:21.032Z,7.79
2022-11-05T17:33:48.575Z,7.73
2022-11-05T17:36:16.789Z,7.69
2022-11-05T17:38:44.339Z,7.63
2022-11-05T17:41:14.726Z,7.62
2022-11-05T17:43:42.693Z,7.67
2022-11-05T17:46:12.799Z,7.62
2022-11-05T17:48:40.771Z,7.61
2022-11-05T17:51:10.684Z,7.63
2022-11-05T17:53:38.679Z,7.59
2022-11-05T17:56:09.224Z,7.50
2022-11-05T17:58:38.454Z,7.38
2022-11-05T18:01:06.482Z,7.30
2022-11-05T18:03:34.422Z,7.22
2022-11-05T18:06:02.768Z,7.13
2022-11-05T18:08:30.451Z,7.04
2022-11-05T18:10:58.290Z,7.02
2022-11-05T18:13:26.042Z,6.95
2022-11-05T18:15:55.438Z,6.91
2022-11-05T18:18:23.081Z,6.92
2022-11-05T18:20:50.688Z,6.87
2022-11-05T18:23:18.346Z,6.86
2022-11-05T18:25:45.927Z,6.86
2022-11-05T18:28:13.750Z,6.78
2022-11-05T18:30:41.625Z,6.77
2022-11-05T18:33:10.889Z,6.69
2022-11-05T18:35:42.080Z,6.58
2022-11-05T18:38:09.710Z,6.47
2022-11-05T18:40:37.261Z,6.45
2022-11-05T18:43:04.879Z,6.43
2022-11-05T18:45:33.355Z,6.41
2022-11-05T18:48:01.628Z,6.36
2022-11-05T18:50:31.011Z,6.40
2022-11-05T18:52:58.607Z,6.41
2022-11-05T18:55:26.156Z,6.44
2022-11-05T18:57:53.882Z,6.45
2022-11-05T19:00:21.733Z,6.48
2022-11-05T19:02:49.441Z,6.46
2022-11-05T19:05:32.439Z,6.45
2022-11-05T19:08:01.782Z,6.45
2022-11-05T19:10:29.585Z,6.47
2022-11-05T19:12:57.732Z,6.49
2022-11-05T19:15:25.352Z,6.48
2022-11-05T19:17:52.959Z,6.47
2022-11-05T19:20:20.643Z,6.48
2022-11-05T19:22:48.275Z,6.49
2022-11-05T19:25:17.261Z,6.51
2022-11-05T19:27:44.917Z,6.49
2022-11-05T19:30:12.867Z,6.48
2022-11-05T19:32:40.403Z,6.45
2022-11-05T19:35:08.642Z,6.41
2022-11-05T19:37:36.212Z,6.42
2022-11-05T19:40:03.733Z,6.38
2022-11-05T19:42:32.605Z,6.34
2022-11-05T19:45:16.745Z,6.30
2022-11-05T19:47:47.656Z,6.30
2022-11-05T19:50:15.206Z,6.27
2022-11-05T19:52:42.740Z,6.24
2022-11-05T19:55:12.335Z,6.26
2022-11-05T19:57:41.548Z,6.21
2022-11-05T20:00:10.441Z,6.23
2022-11-05T20:02:38.351Z,6.21
2022-11-05T20:05:06.555Z,6.17
2022-11-05T20:07:34.115Z,6.12
2022-11-05T20:10:01.644Z,6.06
2022-11-05T20:12:29.222Z,6.01
2022-11-05T20:14:58.127Z,5.98
2022-11-05T20:17:25.692Z,5.93
2022-11-05T20:19:53.310Z,5.92
2022-11-05T20:22:20.847Z,5.88
2022-11-05T20:24:48.382Z,5.87
2022-11-05T20:27:15.991Z,5.84
2022-11-05T20:29:43.585Z,5.78
2022-11-05T20:32:12.948Z,5.73
2022-11-05T20:34:40.713Z,5.72
2022-11-05T20:37:08.261Z,5.68
2022-11-05T20:39:35.811Z,5.68
2022-11-05T20:42:03.422Z,5.62
2022-11-05T20:44:30.947Z,5.59
2022-11-05T20:46:58.485Z,5.55
2022-11-05T20:49:27.411Z,5.56
2022-11-05T20:51:54.986Z,5.50
2022-11-05T20:54:22.750Z,5.47
2022-11-05T20:56:50.355Z,5.44
2022-11-05T20:59:17.966Z,5.43
2022-11-05T21:01:45.573Z,5.41
2022-11-05T21:04:13.208Z,5.37
2022-11-05T21:06:42.222Z,5.34
2022-11-05T21:09:09.865Z,5.28
2022-11-05T21:11:51.329Z,5.27
2022-11-05T21:14:18.927Z,5.22
2022-11-05T21:16:46.454Z,5.20
2022-11-05T21:19:15.038Z,5.17
2022-11-05T21:21:43.995Z,5.15
2022-11-05T21:24:11.493Z,5.15
2022-11-05T21:26:39.518Z,5.13
2022-11-05T21:29:07.610Z,5.13
2022-11-05T21:31:36.925Z,5.11
2022-11-05T21:34:05.043Z,5.09
2022-11-05T21:36:32.699Z,5.08
2022-11-05T21:39:01.536Z,5.07
2022-11-05T21:41:29.196Z,5.02
2022-11-05T21:43:57.525Z,5.00
2022-11-05T21:46:25.398Z,4.97
2022-11-05T21:48:53.073Z,4.94
2022-11-05T21:51:38.279Z,4.93
2022-11-05T21:54:24.926Z,4.94
2022-11-05T21:57:11.065Z,4.95
2022-11-05T21:59:51.921Z,4.97
2022-11-05T22:02:22.117Z,5.00
2022-11-05T22:04:51.962Z,5.03
2022-11-05T22:07:21.507Z,5.05
2022-11-05T22:09:50.775Z,5.14
2022-11-05T22:12:18.570Z,5.31
2022-11-05T22:14:46.111Z,5.38
2022-11-05T22:17:14.834Z,5.36
2022-11-05T22:19:42.940Z,5.39
2022-11-05T22:22:10.951Z,5.47
2022-11-05T22:24:39.526Z,5.50
2022-11-05T22:27:13.558Z,5.48
2022-11-05T22:29:41.249Z,5.45
2022-11-05T22:32:08.888Z,5.39
2022-11-05T22:34:36.438Z,5.37
2022-11-05T22:37:04.019Z,5.32
2022-11-05T22:39:31.572Z,5.29
2022-11-05T22:42:04.225Z,5.24
2022-11-05T22:44:36.207Z,5.22
2022-11-05T22:47:03.863Z,5.19
2022-11-05T22:49:31.382Z,5.15
2022-11-05T22:52:01.060Z,5.12
2022-11-05T22:54:28.862Z,5.09
2022-11-05T22:56:56.385Z,5.05
2022-11-05T22:59:24.186Z,5.00
2022-11-05T23:01:53.402Z,4.91
2022-11-05T23:04:21.036Z,4.89
2022-11-05T23:07:06.000Z,4.84
2022-11-05T23:09:52.960Z,4.83
2022-11-05T23:12:23.926Z,4.83
2022-11-05T23:14:52.322Z,4.80
2022-11-05T23:17:39.209Z,4.78
2022-11-05T23:20:26.401Z,4.77
2022-11-05T23:23:11.680Z,4.73
2022-11-05T23:25:39.242Z,4.74
2022-11-05T23:28:09.722Z,4.72
2022-11-05T23:30:58.988Z,4.71
2022-11-05T23:33:27.486Z,4.72
2022-11-05T23:36:12.646Z,4.70
2022-11-05T23:38:40.722Z,4.69
2022-11-05T23:41:26.668Z,4.68
2022-11-05T23:44:11.980Z,4.67
2022-11-05T23:46:57.190Z,4.68
2022-11-05T23:49:26.361Z,4.72
2022-11-05T23:51:53.880Z,4.71
2022-11-05T23:54:21.848Z,4.73
2022-11-05T23:56:49.407Z,4.73
2022-11-05T23:59:16.958Z,4.73
